createdAt,value
2023-03-01T00:01:54.397Z,98557.38
2023-03-01T00:04:23.427Z,98553.72
2023-03-01T00:06:51.485Z,98552.44
2023-03-01T00:09:19.852Z,98554.25
2023-03-01T00:11:49.126Z,98549.19
2023-03-01T00:14:18.612Z,98549.38
2023-03-01T00:16:47.373Z,98542.41
2023-03-01T00:19:19.295Z,98544.47
2023-03-01T00:21:48.287Z,98536.06
2023-03-01T00:24:17.081Z,98539.72
2023-03-01T00:26:46.387Z,98533.00
2023-03-01T00:29:15.076Z,98538.50
2023-03-01T00:31:43.393Z,98525.13
2023-03-01T00:34:12.334Z,98523.31
2023-03-01T00:36:41.775Z,98520.81
2023-03-01T00:39:14.146Z,98522.66
2023-03-01T00:41:43.275Z,98516.75
2023-03-01T00:44:11.713Z,98516.78
2023-03-01T00:46:41.303Z,98523.03
2023-03-01T00:49:09.620Z,98524.44
2023-03-01T00:51:37.797Z,98524.38
2023-03-01T00:54:07.874Z,98525.38
2023-03-01T00:56:36.043Z,98524.47
2023-03-01T00:59:04.447Z,98517.09
2023-03-01T01:01:34.357Z,98524.97
2023-03-01T01:04:05.103Z,98528.66
2023-03-01T01:06:36.845Z,98521.53
2023-03-01T01:09:08.639Z,98513.44
2023-03-01T01:11:38.741Z,98515.22
2023-03-01T01:14:07.224Z,98512.69
2023-03-01T01:16:35.462Z,98505.19
2023-03-01T01:19:03.989Z,98497.66
2023-03-01T01:21:32.716Z,98498.66
2023-03-01T01:24:02.289Z,98491.81
2023-03-01T01:26:33.974Z,98490.50
2023-03-01T01:29:03.854Z,98489.06
2023-03-01T01:31:32.486Z,98482.16
2023-03-01T01:34:02.722Z,98474.97
2023-03-01T01:36:31.633Z,98481.09
2023-03-01T01:39:00.152Z,98478.28
2023-03-01T01:41:30.408Z,98470.78
2023-03-01T01:44:19.192Z,98466.03
2023-03-01T01:46:51.771Z,98461.41
2023-03-01T01:49:34.387Z,98463.66
2023-03-01T01:52:09.948Z,98466.72
2023-03-01T01:54:44.328Z,98463.09
2023-03-01T01:57:18.994Z,98456.75
2023-03-01T01:59:54.927Z,98452.25
2023-03-01T02:02:24.116Z,98457.94
2023-03-01T02:04:57.888Z,98445.66
2023-03-01T02:07:27.327Z,98454.41
2023-03-01T02:09:55.506Z,98452.56
2023-03-01T02:12:27.255Z,98454.41
2023-03-01T02:14:56.595Z,98448.91
2023-03-01T02:17:25.198Z,98451.81
2023-03-01T02:20:08.472Z,98459.81
2023-03-01T02:22:39.622Z,98453.69
2023-03-01T02:25:19.679Z,98445.25
2023-03-01T02:27:56.343Z,98446.97
2023-03-01T02:30:29.154Z,98446.41
2023-03-01T02:33:03.677Z,98444.59
2023-03-01T02:35:35.928Z,98432.97
2023-03-01T02:38:05.508Z,98422.56
2023-03-01T02:40:37.048Z,98426.44
2023-03-01T02:43:10.318Z,98429.69
2023-03-01T02:45:45.690Z,98428.44
2023-03-01T02:48:13.587Z,98427.88
2023-03-01T02:50:55.540Z,98424.19
2023-03-01T02:53:30.908Z,98423.59
2023-03-01T02:56:00.739Z,98423.00
2023-03-01T02:58:29.033Z,98414.81
2023-03-01T03:01:02.333Z,98407.09
2023-03-01T03:03:30.437Z,98412.22
2023-03-01T03:05:58.372Z,98401.41
2023-03-01T03:08:26.842Z,98411.59
2023-03-01T03:10:55.145Z,98408.13
2023-03-01T03:13:23.382Z,98404.25
2023-03-01T03:15:52.251Z,98396.69
2023-03-01T03:18:21.718Z,98403.22
2023-03-01T03:20:54.084Z,98403.63
2023-03-01T03:23:23.249Z,98405.28
2023-03-01T03:25:52.127Z,98392.16
2023-03-01T03:28:21.120Z,98392.41
2023-03-01T03:30:49.133Z,98391.19
2023-03-01T03:33:17.154Z,98390.34
2023-03-01T03:35:51.288Z,98388.06
2023-03-01T03:38:22.925Z,98389.94
2023-03-01T03:40:53.787Z,98386.25
2023-03-01T03:43:24.014Z,98388.91
2023-03-01T03:45:53.569Z,98382.75
2023-03-01T03:48:23.053Z,98403.97
2023-03-01T03:50:54.371Z,98400.09
2023-03-01T03:53:24.412Z,98396.28
2023-03-01T03:55:52.661Z,98395.66
2023-03-01T03:58:22.838Z,98404.03
2023-03-01T04:00:53.919Z,98408.53
2023-03-01T04:03:23.054Z,98402.63
2023-03-01T04:05:54.275Z,98408.91
2023-03-01T04:08:23.812Z,98412.38
2023-03-01T04:10:54.206Z,98400.13
2023-03-01T04:13:23.908Z,98400.13
2023-03-01T04:15:52.811Z,98412.16
2023-03-01T04:18:23.316Z,98399.13
2023-03-01T04:20:56.443Z,98391.97
2023-03-01T04:23:27.828Z,98383.34
2023-03-01T04:25:58.144Z,98396.59
2023-03-01T04:28:28.917Z,98392.72
2023-03-01T04:30:58.262Z,98402.69
2023-03-01T04:33:27.450Z,98394.56
2023-03-01T04:35:59.168Z,98394.34
2023-03-01T04:38:27.983Z,98396.19
2023-03-01T04:40:58.378Z,98400.66
2023-03-01T04:43:26.865Z,98389.41
2023-03-01T04:45:55.404Z,98396.25
2023-03-01T04:48:24.044Z,98391.44
2023-03-01T04:50:52.308Z,98392.88
2023-03-01T04:53:21.957Z,98396.75
2023-03-01T04:55:51.023Z,98399.97
2023-03-01T04:58:19.401Z,98398.88
2023-03-01T05:00:47.625Z,98392.44
2023-03-01T05:03:19.788Z,98382.88
2023-03-01T05:05:50.518Z,98381.31
2023-03-01T05:08:19.563Z,98380.06
2023-03-01T05:10:52.226Z,98379.47
2023-03-01T05:13:22.974Z,98368.78
2023-03-01T05:15:56.454Z,98368.22
2023-03-01T05:18:27.029Z,98356.59
2023-03-01T05:20:59.689Z,98356.94
2023-03-01T05:23:27.909Z,98350.31
2023-03-01T05:26:01.040Z,98361.69
2023-03-01T05:28:29.542Z,98353.75
2023-03-01T05:30:58.338Z,98360.78
2023-03-01T05:33:27.530Z,98365.31
2023-03-01T05:35:56.296Z,98360.09
2023-03-01T05:38:24.494Z,98363.38
2023-03-01T05:40:53.728Z,98353.28
2023-03-01T05:43:23.292Z,98349.13
2023-03-01T05:45:51.583Z,98358.34
2023-03-01T05:48:22.202Z,98366.88
2023-03-01T05:50:50.418Z,98348.72
2023-03-01T05:53:22.641Z,98356.72
2023-03-01T05:55:51.022Z,98362.78
2023-03-01T05:58:21.147Z,98359.16
2023-03-01T06:00:53.998Z,98368.50
2023-03-01T06:03:23.154Z,98376.00
2023-03-01T06:05:51.626Z,98371.19
2023-03-01T06:08:21.857Z,98368.97
2023-03-01T06:10:50.267Z,98371.44
2023-03-01T06:13:18.705Z,98376.00
2023-03-01T06:15:47.442Z,98357.91
2023-03-01T06:18:17.078Z,98349.75
2023-03-01T06:20:48.224Z,98367.50
2023-03-01T06:23:16.568Z,98361.03
2023-03-01T06:25:47.844Z,98355.97
2023-03-01T06:28:17.029Z,98362.13
2023-03-01T06:30:48.700Z,98362.75
2023-03-01T06:33:21.533Z,98368.25
2023-03-01T06:35:50.087Z,98373.59
2023-03-01T06:38:20.186Z,98375.22
2023-03-01T06:40:55.561Z,98381.16
2023-03-01T06:43:24.746Z,98367.00
2023-03-01T06:45:54.171Z,98364.31
2023-03-01T06:48:24.981Z,98369.41
2023-03-01T06:50:53.500Z,98380.34
2023-03-01T06:53:23.158Z,98374.56
2023-03-01T06:55:58.124Z,98368.31
2023-03-01T06:58:28.549Z,98375.19
2023-03-01T07:00:58.734Z,98401.78
2023-03-01T07:05:58.666Z,98372.78
2023-03-01T07:08:27.353Z,98409.53
2023-03-01T07:10:58.839Z,98442.94
2023-03-01T07:13:27.661Z,98437.81
2023-03-01T07:15:58.953Z,98445.28
2023-03-01T07:18:29.354Z,98447.88
2023-03-01T07:20:57.545Z,98405.34
2023-03-01T07:23:27.063Z,98457.97
2023-03-01T07:25:56.149Z,98405.59
2023-03-01T07:28:25.442Z,98428.31
2023-03-01T07:30:55.790Z,98429.06
2023-03-01T07:33:27.209Z,98441.00
2023-03-01T07:36:00.357Z,98449.56
2023-03-01T07:38:29.653Z,98437.59
2023-03-01T07:41:01.510Z,98471.91
2023-03-01T07:43:30.504Z,98458.94
2023-03-01T07:46:02.265Z,98476.34
2023-03-01T07:48:33.243Z,98469.59
2023-03-01T07:51:03.876Z,98495.41
2023-03-01T07:53:35.682Z,98468.50
2023-03-01T07:56:06.595Z,98474.38
2023-03-01T07:58:37.156Z,98485.22
2023-03-01T08:01:06.440Z,98455.00
2023-03-01T08:03:34.903Z,98447.03
2023-03-01T08:06:06.292Z,98447.88
2023-03-01T08:08:35.070Z,98449.66
2023-03-01T08:11:05.464Z,98472.41
2023-03-01T08:13:36.072Z,98464.22
2023-03-01T08:16:05.452Z,98480.38
2023-03-01T08:18:34.830Z,98474.75
2023-03-01T08:21:11.069Z,98492.34
2023-03-01T08:23:40.091Z,98485.16
2023-03-01T08:26:12.256Z,98480.25
2023-03-01T08:28:41.420Z,98466.53
2023-03-01T08:31:22.121Z,98452.03
2023-03-01T08:33:56.463Z,98463.94
2023-03-01T08:36:28.465Z,98484.44
2023-03-01T08:38:57.172Z,98465.34
2023-03-01T08:41:25.826Z,98468.53
2023-03-01T08:44:00.159Z,98427.06
2023-03-01T08:46:29.635Z,98507.88
2023-03-01T08:48:58.577Z,98464.53
2023-03-01T08:51:30.861Z,98460.22
2023-03-01T08:53:59.458Z,98478.09
2023-03-01T08:56:28.249Z,98448.13
2023-03-01T08:58:57.904Z,98457.19
2023-03-01T09:01:26.393Z,98433.94
2023-03-01T09:03:56.512Z,98449.06
2023-03-01T09:06:25.697Z,98449.38
2023-03-01T09:08:58.509Z,98498.28
2023-03-01T09:11:30.444Z,98424.63
2023-03-01T09:13:59.744Z,98460.31
2023-03-01T09:16:28.707Z,98451.25
2023-03-01T09:18:57.886Z,98476.75
2023-03-01T09:21:39.482Z,98436.56
2023-03-01T09:24:16.619Z,98450.16
2023-03-01T09:26:48.884Z,98409.31
2023-03-01T09:29:19.708Z,98453.53
2023-03-01T09:31:48.797Z,98448.78
2023-03-01T09:34:20.395Z,98471.03
2023-03-01T09:36:48.762Z,98431.66
2023-03-01T09:39:20.197Z,98399.28
2023-03-01T09:41:57.300Z,98455.06
2023-03-01T09:44:34.042Z,98426.50
2023-03-01T09:47:04.103Z,98383.81
2023-03-01T09:49:34.412Z,98387.19
2023-03-01T09:52:10.150Z,98408.56
2023-03-01T09:54:40.650Z,98389.59
2023-03-01T09:57:20.865Z,98361.56
2023-03-01T10:00:05.406Z,98311.28
2023-03-01T10:02:42.173Z,98281.25
2023-03-01T10:05:27.461Z,98274.31
2023-03-01T10:08:09.675Z,98261.13
2023-03-01T10:10:45.409Z,98227.47
2023-03-01T10:13:20.269Z,98267.56
2023-03-01T10:15:57.296Z,98241.03
2023-03-01T10:18:29.270Z,98231.56
2023-03-01T10:21:01.327Z,98250.03
2023-03-01T10:23:34.321Z,98248.69
2023-03-01T10:26:15.597Z,98243.00
2023-03-01T10:28:55.534Z,98233.25
2023-03-01T10:31:29.817Z,98210.03
2023-03-01T10:34:00.603Z,98204.00
2023-03-01T10:36:29.585Z,98206.00
2023-03-01T10:38:59.603Z,98201.81
2023-03-01T10:41:30.472Z,98209.66
2023-03-01T10:44:01.346Z,98209.06
2023-03-01T10:46:32.308Z,98210.03
2023-03-01T10:49:16.690Z,98202.00
2023-03-01T10:51:48.078Z,98198.75
2023-03-01T10:54:22.093Z,98192.38
2023-03-01T10:56:54.940Z,98194.38
2023-03-01T10:59:29.771Z,98214.53
2023-03-01T11:02:25.387Z,98202.19
2023-03-01T11:05:16.203Z,98184.69
2023-03-01T11:07:51.523Z,98198.13
2023-03-01T11:10:21.699Z,98200.22
2023-03-01T11:12:53.680Z,98180.16
2023-03-01T11:15:28.507Z,98194.03
2023-03-01T11:18:12.711Z,98182.84
2023-03-01T11:20:43.228Z,98178.06
2023-03-01T11:23:15.313Z,98190.84
2023-03-01T11:25:46.581Z,98179.22
2023-03-01T11:28:21.740Z,98180.91
2023-03-01T11:31:07.707Z,98170.25
2023-03-01T11:33:44.014Z,98167.91
2023-03-01T11:36:22.435Z,98173.06
2023-03-01T11:38:51.741Z,98168.50
2023-03-01T11:41:23.698Z,98162.03
2023-03-01T11:43:57.094Z,98159.31
2023-03-01T11:47:02.587Z,98150.13
2023-03-01T11:50:04.328Z,98153.53
2023-03-01T11:52:47.228Z,98138.25
2023-03-01T11:55:27.092Z,98139.88
2023-03-01T11:58:17.606Z,98139.34
2023-03-01T12:01:03.498Z,98127.47
2023-03-01T12:03:43.778Z,98130.97
2023-03-01T12:06:42.249Z,98124.50
2023-03-01T12:09:27.726Z,98118.03
2023-03-01T12:12:27.564Z,98116.97
2023-03-01T12:15:21.983Z,98110.47
2023-03-01T12:18:14.746Z,98115.59
2023-03-01T12:20:50.620Z,98118.06
2023-03-01T12:24:15.678Z,98105.38
2023-03-01T12:26:54.629Z,98098.63
2023-03-01T12:29:28.592Z,98106.19
2023-03-01T12:32:21.788Z,98101.63
2023-03-01T12:35:06.898Z,98107.28
2023-03-01T12:37:49.396Z,98106.19
2023-03-01T12:40:36.269Z,98086.50
2023-03-01T12:43:27.110Z,98090.28
2023-03-01T12:46:12.992Z,98088.91
2023-03-01T12:48:51.984Z,98101.56
2023-03-01T12:51:25.866Z,98096.47
2023-03-01T12:53:57.287Z,98083.25
2023-03-01T12:56:28.501Z,98093.78
2023-03-01T12:59:10.541Z,98080.28
2023-03-01T13:01:48.704Z,98070.31
2023-03-01T13:04:38.546Z,98069.19
2023-03-01T13:07:32.097Z,98068.91
2023-03-01T13:10:17.973Z,98066.69
2023-03-01T13:12:52.641Z,98057.78
2023-03-01T13:15:32.408Z,98061.25
2023-03-01T13:18:02.531Z,98080.16
2023-03-01T13:20:36.369Z,98055.94
2023-03-01T13:23:12.437Z,98050.94
2023-03-01T13:26:03.207Z,98067.38
2023-03-01T13:29:01.640Z,98068.94
2023-03-01T13:32:06.085Z,98071.00
2023-03-01T13:35:02.449Z,98065.09
2023-03-01T13:37:36.466Z,98062.50
2023-03-01T13:40:49.184Z,98061.91
2023-03-01T13:43:32.470Z,98071.47
2023-03-01T13:46:02.978Z,98055.25
2023-03-01T13:48:33.842Z,98056.66
2023-03-01T13:51:05.384Z,98060.03
2023-03-01T13:53:38.925Z,98068.63
2023-03-01T13:56:16.265Z,98049.34
2023-03-01T13:58:52.014Z,98041.84
2023-03-01T14:01:30.524Z,98042.28
2023-03-01T14:03:59.970Z,98033.69
2023-03-01T14:06:32.242Z,98035.81
2023-03-01T14:09:07.130Z,98043.09
2023-03-01T14:12:18.021Z,98036.03
2023-03-01T14:15:00.790Z,98049.25
2023-03-01T14:17:52.218Z,98043.75
2023-03-01T14:20:23.353Z,98050.22
2023-03-01T14:22:55.519Z,98043.16
2023-03-01T14:25:27.214Z,98057.91
2023-03-01T14:28:07.152Z,98032.13
2023-03-01T14:30:40.059Z,98041.09
2023-03-01T14:33:21.481Z,98040.00
2023-03-01T14:35:57.379Z,98031.72
2023-03-01T14:38:32.993Z,98030.88
2023-03-01T14:41:06.709Z,98025.50
2023-03-01T14:43:38.452Z,98039.00
2023-03-01T14:46:06.797Z,98042.25
2023-03-01T14:48:35.245Z,98022.88
2023-03-01T14:51:07.522Z,98025.00
2023-03-01T14:53:45.856Z,98017.50
2023-03-01T14:56:20.397Z,98022.31
2023-03-01T14:58:53.930Z,98018.03
2023-03-01T15:01:23.255Z,98015.03
2023-03-01T15:03:53.419Z,98032.28
2023-03-01T15:06:25.049Z,98017.72
2023-03-01T15:08:55.901Z,98026.63
2023-03-01T15:11:27.018Z,98029.84
2023-03-01T15:13:57.305Z,98012.00
2023-03-01T15:16:29.043Z,98009.91
2023-03-01T15:19:00.121Z,98010.72
2023-03-01T15:21:34.049Z,98018.25
2023-03-01T15:24:12.635Z,98013.09
2023-03-01T15:26:45.051Z,98010.28
2023-03-01T15:29:20.493Z,98023.75
2023-03-01T15:31:57.960Z,98025.34
2023-03-01T15:34:28.029Z,98014.81
2023-03-01T15:36:59.638Z,98018.66
2023-03-01T15:39:45.977Z,98007.53
2023-03-01T15:42:18.198Z,98015.41
2023-03-01T15:44:48.119Z,98009.84
2023-03-01T15:47:30.313Z,98007.94
2023-03-01T15:50:00.935Z,98018.19
2023-03-01T15:52:32.664Z,98019.56
2023-03-01T15:55:04.057Z,98028.22
2023-03-01T15:57:33.251Z,98018.19
2023-03-01T16:00:05.821Z,98011.72
2023-03-01T16:02:34.995Z,98020.88
2023-03-01T16:05:04.462Z,98022.97
2023-03-01T16:07:33.435Z,98016.00
2023-03-01T16:10:02.305Z,98013.47
2023-03-01T16:12:30.457Z,98006.50
2023-03-01T16:14:58.820Z,98010.31
2023-03-01T16:17:29.200Z,98009.19
2023-03-01T16:19:57.468Z,98008.63
2023-03-01T16:22:28.395Z,98014.09
2023-03-01T16:24:57.681Z,98008.72
2023-03-01T16:27:26.714Z,98011.41
2023-03-01T16:29:55.750Z,98029.31
2023-03-01T16:32:24.711Z,98007.50
2023-03-01T16:34:54.706Z,98006.59
2023-03-01T16:37:23.279Z,98006.66
2023-03-01T16:39:52.874Z,98013.69
2023-03-01T16:42:21.588Z,98019.16
2023-03-01T16:44:50.439Z,98020.66
2023-03-01T16:47:19.250Z,98018.34
2023-03-01T16:49:47.730Z,98003.03
2023-03-01T16:52:17.592Z,98021.03
2023-03-01T16:54:46.654Z,98006.59
2023-03-01T16:57:15.118Z,97995.22
2023-03-01T16:59:43.605Z,97993.63
2023-03-01T17:02:14.157Z,97995.47
2023-03-01T17:04:42.682Z,97992.22
2023-03-01T17:07:11.205Z,97995.31
2023-03-01T17:09:41.122Z,97994.16
2023-03-01T17:12:10.002Z,98008.94
2023-03-01T17:14:39.371Z,98016.22
2023-03-01T17:17:08.098Z,98020.94
2023-03-01T17:19:40.885Z,98025.53
2023-03-01T17:22:10.492Z,98023.47
2023-03-01T17:24:41.919Z,98019.63
2023-03-01T17:27:12.567Z,98009.75
2023-03-01T17:29:41.848Z,98021.88
2023-03-01T17:32:11.650Z,98020.22
2023-03-01T17:34:43.327Z,98019.50
2023-03-01T17:37:11.759Z,98025.75
2023-03-01T17:39:42.142Z,98023.22
2023-03-01T17:42:10.420Z,98018.91
2023-03-01T17:44:39.113Z,98018.41
2023-03-01T17:47:08.307Z,98021.59
2023-03-01T17:49:37.197Z,98028.09
2023-03-01T17:52:05.930Z,98020.94
2023-03-01T17:54:35.497Z,98012.56
2023-03-01T17:57:05.968Z,98015.00
2023-03-01T17:59:37.673Z,98008.22
2023-03-01T18:02:06.507Z,98014.31
2023-03-01T18:04:35.232Z,98011.72
2023-03-01T18:07:03.908Z,98015.00
2023-03-01T18:09:32.370Z,98017.28
2023-03-01T18:12:00.787Z,98016.09
2023-03-01T18:14:34.391Z,98013.19
2023-03-01T18:17:06.333Z,98017.34
2023-03-01T18:19:35.153Z,98028.31
2023-03-01T18:22:03.522Z,98023.13
2023-03-01T18:24:31.854Z,98022.41
2023-03-01T18:27:00.492Z,98021.88
2023-03-01T18:29:30.213Z,98017.28
2023-03-01T18:31:59.222Z,98008.84
2023-03-01T18:34:30.678Z,98008.31
2023-03-01T18:37:09.434Z,98013.59
2023-03-01T18:39:39.188Z,98019.44
2023-03-01T18:42:07.858Z,98011.69
2023-03-01T18:44:38.622Z,98019.63
2023-03-01T18:47:07.573Z,98015.94
2023-03-01T18:49:37.802Z,98012.75
2023-03-01T18:52:06.512Z,98012.94
2023-03-01T18:54:36.550Z,98017.00
2023-03-01T18:57:05.327Z,98015.00
2023-03-01T18:59:35.218Z,98009.53
2023-03-01T19:02:05.692Z,98016.47
2023-03-01T19:04:34.012Z,98009.47
2023-03-01T19:07:03.080Z,98014.94
2023-03-01T19:09:32.824Z,97998.84
2023-03-01T19:12:03.555Z,98006.25
2023-03-01T19:14:31.712Z,98006.06
2023-03-01T19:17:00.646Z,98007.47
2023-03-01T19:19:30.448Z,98005.50
2023-03-01T19:22:05.802Z,98010.59
2023-03-01T19:24:35.532Z,98002.13
2023-03-01T19:27:04.076Z,98007.94
2023-03-01T19:29:32.775Z,98003.56
2023-03-01T19:32:01.778Z,97995.88
2023-03-01T19:34:31.990Z,98003.66
2023-03-01T19:37:00.697Z,98009.25
2023-03-01T19:39:29.933Z,98004.59
2023-03-01T19:41:58.917Z,98006.47
2023-03-01T19:44:28.781Z,98012.72
2023-03-01T19:46:58.612Z,98004.16
2023-03-01T19:49:30.351Z,98013.31
2023-03-01T19:52:00.140Z,98001.81
2023-03-01T19:54:28.476Z,98018.75
2023-03-01T19:56:57.657Z,98012.72
2023-03-01T19:59:27.802Z,98020.50
2023-03-01T20:01:57.520Z,98017.81
2023-03-01T20:04:26.152Z,98017.59
2023-03-01T20:06:54.549Z,98015.84
2023-03-01T20:09:25.285Z,98012.84
2023-03-01T20:11:54.305Z,98017.16
2023-03-01T20:14:24.227Z,98012.25
2023-03-01T20:16:54.102Z,98019.69
2023-03-01T20:19:22.957Z,98013.78
2023-03-01T20:21:51.614Z,98019.25
2023-03-01T20:24:21.579Z,98015.16
2023-03-01T20:26:51.501Z,98015.06
2023-03-01T20:29:20.286Z,98018.66
2023-03-01T20:31:49.318Z,98021.75
2023-03-01T20:34:18.131Z,98013.66
2023-03-01T20:36:50.236Z,98015.88
2023-03-01T20:39:19.191Z,98027.31
2023-03-01T20:41:47.762Z,98031.41
2023-03-01T20:44:18.514Z,98023.38
2023-03-01T20:46:46.711Z,98031.28
2023-03-01T20:49:14.826Z,98024.44
2023-03-01T20:51:47.008Z,98024.75
2023-03-01T20:54:16.006Z,98017.34
2023-03-01T20:56:44.277Z,98023.94
2023-03-01T20:59:14.663Z,98023.59
2023-03-01T21:01:44.266Z,98018.13
2023-03-01T21:04:13.253Z,98034.38
2023-03-01T21:06:43.629Z,98032.63
2023-03-01T21:09:12.148Z,98022.22
2023-03-01T21:11:40.704Z,98023.84
2023-03-01T21:14:13.052Z,98026.50
2023-03-01T21:16:41.534Z,98023.03
2023-03-01T21:19:11.315Z,98015.84
2023-03-01T21:21:40.037Z,98007.59
2023-03-01T21:24:10.247Z,98019.69
2023-03-01T21:26:39.353Z,98020.13
2023-03-01T21:29:08.135Z,98016.63
2023-03-01T21:31:36.767Z,98006.25
2023-03-01T21:34:07.852Z,98004.41
2023-03-01T21:36:38.354Z,98005.47
2023-03-01T21:39:08.273Z,98001.69
2023-03-01T21:41:41.038Z,97998.41
2023-03-01T21:44:09.578Z,97998.97
2023-03-01T21:46:39.709Z,98000.84
2023-03-01T21:49:09.748Z,97999.00
2023-03-01T21:51:39.728Z,98002.28
2023-03-01T21:54:12.403Z,97997.13
2023-03-01T21:56:41.851Z,97995.28
2023-03-01T21:59:13.657Z,97997.28
2023-03-01T22:01:42.204Z,97988.84
2023-03-01T22:04:10.986Z,97992.28
2023-03-01T22:06:43.318Z,97993.00
2023-03-01T22:09:14.273Z,97990.66
2023-03-01T22:11:44.586Z,97993.94
2023-03-01T22:14:14.036Z,97987.44
2023-03-01T22:16:45.104Z,97990.56
2023-03-01T22:19:15.550Z,97988.47
2023-03-01T22:21:47.704Z,97985.78
2023-03-01T22:24:16.113Z,97991.38
2023-03-01T22:26:45.588Z,97996.72
2023-03-01T22:29:16.896Z,97995.53
2023-03-01T22:31:45.758Z,97995.84
2023-03-01T22:34:17.624Z,97994.84
2023-03-01T22:36:47.731Z,97982.06
2023-03-01T22:39:20.262Z,97992.78
2023-03-01T22:41:49.844Z,97990.69
2023-03-01T22:44:24.838Z,97988.75
2023-03-01T22:46:53.644Z,97977.81
2023-03-01T22:49:23.341Z,97987.22
2023-03-01T22:51:53.399Z,97990.53
2023-03-01T22:54:22.015Z,97987.84
2023-03-01T22:56:51.604Z,97994.47
2023-03-01T22:59:23.075Z,97986.25
2023-03-01T23:01:53.748Z,97991.66
2023-03-01T23:04:25.197Z,97988.19
2023-03-01T23:06:56.083Z,97981.66
2023-03-01T23:09:26.481Z,97982.53
2023-03-01T23:11:55.783Z,97977.94
2023-03-01T23:14:25.144Z,97973.66
2023-03-01T23:16:54.043Z,97972.53
2023-03-01T23:19:22.812Z,97968.03
2023-03-01T23:21:51.659Z,97963.81
2023-03-01T23:24:23.732Z,97972.97
2023-03-01T23:26:54.027Z,97961.75
2023-03-01T23:29:22.965Z,97967.50
2023-03-01T23:31:51.454Z,97964.19
2023-03-01T23:34:21.474Z,97967.72
2023-03-01T23:36:52.582Z,97958.31
2023-03-01T23:39:23.699Z,97959.13
2023-03-01T23:41:52.388Z,97960.47
2023-03-01T23:44:23.084Z,97959.59
2023-03-01T23:46:52.318Z,97948.00
2023-03-01T23:49:22.413Z,97955.75
2023-03-01T23:51:55.350Z,97957.16
2023-03-01T23:54:26.975Z,97952.19
2023-03-01T23:56:55.655Z,97961.13
2023-03-01T23:59:25.898Z,97952.06
